Time;durP1;ratioP1;P1;durP2;ratioP2;P2;SDS_P1;SDS_P2;PMS_P1;PMS_P2;Temp;Humidity;BMP_temperature;BMP_pressure;BME280_temperature;BME280_humidity;BME280_pressure;Samples;Min_cycle;Max_cycle;Signal;HPM_P1;HPM_P2
2021/01/07 02:15:41;;;;;;;22.20;8.93;;;-1.70;99.90;;;;;;4940597;29;20027;-93
2021/01/07 02:18:08;;;;;;;22.17;9.27;;;-1.70;99.90;;;;;;4924200;29;20048;-90
2021/01/07 02:20:35;;;;;;;29.20;11.32;;;-1.80;99.90;;;;;;4922698;29;20032;-92
2021/01/07 02:23:00;;;;;;;35.83;12.13;;;-1.80;99.90;;;;;;4914246;29;20040;-94
2021/01/07 02:25:26;;;;;;;41.38;12.98;;;-1.80;99.90;;;;;;4904669;29;20024;-90
2021/01/07 02:27:52;;;;;;;42.60;13.88;;;-1.80;99.90;;;;;;4904746;29;20038;-90
2021/01/07 02:30:18;;;;;;;34.60;12.40;;;-1.90;99.90;;;;;;4904531;29;20067;-91
2021/01/07 02:32:45;;;;;;;29.25;11.52;;;-1.90;99.90;;;;;;4902479;29;20032;-94
2021/01/07 02:35:11;;;;;;;27.30;9.82;;;-1.90;99.90;;;;;;4901978;29;20028;-92
2021/01/07 02:37:38;;;;;;;20.88;8.57;;;-1.90;99.90;;;;;;4902503;29;20040;-91
2021/01/07 02:40:08;;;;;;;21.73;9.48;;;-1.90;99.90;;;;;;4902819;29;20063;-90
2021/01/07 02:42:34;;;;;;;17.70;7.65;;;-2.00;99.90;;;;;;4902361;29;20032;-92
2021/01/07 02:45:00;;;;;;;23.08;8.65;;;-2.00;99.90;;;;;;4919845;29;20537;-91
2021/01/07 02:47:25;;;;;;;17.88;7.65;;;-2.00;99.90;;;;;;4920499;29;20446;-92
2021/01/07 02:49:51;;;;;;;25.25;9.50;;;-2.00;99.90;;;;;;4905841;29;20384;-93
2021/01/07 02:52:17;;;;;;;16.77;7.20;;;-2.00;99.90;;;;;;4905764;29;20032;-92
2021/01/07 02:54:43;;;;;;;23.50;8.02;;;-2.00;99.90;;;;;;4906285;29;20123;-93
2021/01/07 02:57:08;;;;;;;17.25;7.88;;;-2.00;99.90;;;;;;4905688;29;20032;-93
2021/01/07 02:59:34;;;;;;;22.13;7.80;;;-2.00;99.90;;;;;;4921868;29;20040;-90
2021/01/07 03:02:00;;;;;;;17.10;7.22;;;-2.10;99.90;;;;;;4921839;29;20474;-92
2021/01/07 03:04:25;;;;;;;16.25;7.18;;;-2.10;99.90;;;;;;4920985;29;20064;-93
2021/01/07 03:06:51;;;;;;;21.65;8.05;;;-2.10;99.90;;;;;;4922220;29;20020;-92
2021/01/07 03:09:17;;;;;;;15.65;6.90;;;-2.10;99.90;;;;;;4905035;29;20031;-93
2021/01/07 03:11:42;;;;;;;15.65;5.85;;;-2.20;99.90;;;;;;4904435;29;20071;-94
2021/01/07 03:14:08;;;;;;;13.25;5.90;;;-2.20;99.90;;;;;;4921694;29;20043;-92
2021/01/07 03:16:34;;;;;;;11.27;5.80;;;-2.20;99.90;;;;;;4920469;29;20039;-91
2021/01/07 03:19:00;;;;;;;13.40;5.25;;;-2.20;99.90;;;;;;4904350;29;20079;-92
2021/01/07 03:21:25;;;;;;;12.70;5.32;;;-2.20;99.90;;;;;;4905214;29;20091;-91
2021/01/07 03:23:51;;;;;;;16.10;6.32;;;-2.30;99.90;;;;;;4904249;29;20123;-93
2021/01/07 03:26:17;;;;;;;17.50;6.53;;;-2.30;99.90;;;;;;4921366;29;20542;-91
2021/01/07 03:28:43;;;;;;;15.40;6.90;;;-2.30;99.90;;;;;;4904238;29;20032;-91
2021/01/07 03:31:10;;;;;;;14.00;6.47;;;-2.30;99.90;;;;;;4904774;29;20032;-91
2021/01/07 03:33:36;;;;;;;13.57;5.50;;;-2.40;99.90;;;;;;4904964;29;20086;-91
2021/01/07 03:36:02;;;;;;;15.02;6.97;;;-2.40;99.90;;;;;;4903784;29;20028;-93
2021/01/07 03:38:28;;;;;;;21.27;8.55;;;-2.40;99.90;;;;;;4903951;29;20036;-91
2021/01/07 03:40:54;;;;;;;21.13;9.68;;;-2.40;99.90;;;;;;4904855;29;20091;-92
2021/01/07 03:43:20;;;;;;;17.95;8.25;;;-2.50;99.90;;;;;;4904027;29;20024;-91
2021/01/07 03:45:45;;;;;;;20.80;9.48;;;-2.50;99.90;;;;;;4903931;29;20039;-92
2021/01/07 03:48:11;;;;;;;24.48;8.32;;;-2.60;99.90;;;;;;4920925;29;20140;-91
2021/01/07 03:50:37;;;;;;;22.90;8.80;;;-2.60;99.90;;;;;;4904121;29;20110;-90
2021/01/07 03:53:02;;;;;;;17.70;8.27;;;-2.60;99.90;;;;;;4903792;29;20035;-90
2021/01/07 03:55:28;;;;;;;16.75;7.25;;;-2.70;99.90;;;;;;4904184;29;20031;-90
2021/01/07 03:57:54;;;;;;;16.25;7.05;;;-2.70;99.90;;;;;;4903357;29;20040;-91
2021/01/07 04:00:20;;;;;;;20.48;6.60;;;-2.70;99.90;;;;;;4920003;29;20036;-91
2021/01/07 04:02:46;;;;;;;20.52;8.68;;;-2.70;99.90;;;;;;4920261;29;20350;-92
2021/01/07 04:05:12;;;;;;;15.85;6.78;;;-2.70;99.90;;;;;;4903259;29;20043;-90
2021/01/07 04:07:39;;;;;;;20.42;7.90;;;-2.80;99.90;;;;;;4903771;29;20024;-90
2021/01/07 04:10:08;;;;;;;20.00;7.35;;;-2.80;99.90;;;;;;4921120;29;20474;-91
2021/01/07 04:12:35;;;;;;;14.10;6.10;;;-2.80;99.90;;;;;;4903564;29;20524;-90
2021/01/07 04:15:02;;;;;;;14.82;6.72;;;-2.80;99.90;;;;;;4903447;29;20119;-91
2021/01/07 04:17:28;;;;;;;25.90;8.65;;;-2.90;99.90;;;;;;4920288;29;20028;-90
2021/01/07 04:19:53;;;;;;;20.92;7.65;;;-2.90;99.90;;;;;;4903099;29;20072;-91
2021/01/07 04:22:19;;;;;;;15.05;7.00;;;-2.90;99.90;;;;;;4903303;29;20119;-91
2021/01/07 04:24:46;;;;;;;16.65;6.93;;;-3.00;99.90;;;;;;4903239;29;20046;-91
2021/01/07 04:27:11;;;;;;;15.23;7.10;;;-2.90;99.90;;;;;;4920240;29;20473;-91
2021/01/07 04:29:37;;;;;;;16.25;7.05;;;-3.00;99.90;;;;;;4920223;29;20066;-90
2021/01/07 04:32:03;;;;;;;16.50;7.00;;;-3.00;99.90;;;;;;4919037;29;20135;-92
2021/01/07 04:34:28;;;;;;;14.50;6.22;;;-3.00;99.90;;;;;;4903072;29;20044;-92
2021/01/07 04:36:54;;;;;;;16.27;6.82;;;-3.00;99.90;;;;;;4919790;29;20024;-91
2021/01/07 04:39:20;;;;;;;17.20;8.40;;;-3.10;99.90;;;;;;4903053;29;20060;-92
2021/01/07 04:41:45;;;;;;;20.13;7.80;;;-3.00;99.90;;;;;;4903166;29;20494;-92
2021/01/07 04:44:12;;;;;;;24.48;7.75;;;-3.10;99.90;;;;;;4903116;29;20096;-90
2021/01/07 04:46:38;;;;;;;19.52;7.63;;;-3.10;99.90;;;;;;4902726;29;20028;-91
2021/01/07 04:49:03;;;;;;;13.90;6.63;;;-3.10;99.90;;;;;;4902963;29;20071;-92
2021/01/07 04:51:29;;;;;;;20.58;7.20;;;-3.10;99.90;;;;;;4902688;29;20036;-91
2021/01/07 04:53:56;;;;;;;13.60;6.63;;;-3.10;99.90;;;;;;4903179;29;20024;-90
2021/01/07 04:56:22;;;;;;;17.35;6.82;;;-3.10;99.90;;;;;;4902812;29;20481;-90
2021/01/07 04:58:47;;;;;;;14.65;6.80;;;-3.10;99.90;;;;;;4902563;29;20040;-91
2021/01/07 05:01:14;;;;;;;15.00;6.38;;;-3.10;99.90;;;;;;4902439;29;20046;-91
2021/01/07 05:03:45;;;;;;;13.57;5.70;;;-3.10;99.90;;;;;;4902802;29;20024;-91
2021/01/07 05:06:11;;;;;;;13.45;5.75;;;-3.10;99.90;;;;;;4903139;29;20528;-90
2021/01/07 05:08:36;;;;;;;13.55;5.53;;;-3.10;99.90;;;;;;4902570;29;20024;-90
2021/01/07 05:11:02;;;;;;;14.68;6.63;;;-3.10;99.90;;;;;;4906311;29;20497;-91
2021/01/07 05:13:28;;;;;;;19.50;8.10;;;-3.10;99.90;;;;;;4921244;29;20521;-92
2021/01/07 05:15:53;;;;;;;14.85;6.43;;;-3.10;99.90;;;;;;4921522;29;20034;-91
2021/01/07 05:18:19;;;;;;;12.07;5.47;;;-3.10;99.90;;;;;;4921583;29;20042;-90
2021/01/07 05:20:45;;;;;;;18.38;7.22;;;-3.10;99.90;;;;;;4921192;29;20053;-91
2021/01/07 05:23:11;;;;;;;22.83;7.90;;;-3.20;99.90;;;;;;4920859;29;20036;-90
2021/01/07 05:25:38;;;;;;;19.48;7.13;;;-3.20;99.90;;;;;;4921649;29;20031;-90
2021/01/07 05:28:06;;;;;;;15.95;7.25;;;-3.20;99.90;;;;;;4921127;29;20024;-90
2021/01/07 05:30:33;;;;;;;20.30;7.50;;;-3.20;99.90;;;;;;4921104;29;20118;-90
2021/01/07 05:33:08;;;;;;;18.73;7.22;;;-3.20;99.90;;;;;;4921065;29;20408;-90
2021/01/07 05:35:36;;;;;;;15.52;6.40;;;-3.20;99.90;;;;;;4922399;29;20031;-89
2021/01/07 05:38:04;;;;;;;20.85;7.40;;;-3.20;99.90;;;;;;4921837;29;20043;-90
2021/01/07 05:40:30;;;;;;;21.58;7.88;;;-3.30;99.90;;;;;;4927878;28;20044;-91
2021/01/07 05:42:58;;;;;;;21.83;7.88;;;-3.30;99.90;;;;;;4943571;29;20039;-92
2021/01/07 05:45:35;;;;;;;20.10;8.00;;;-3.30;99.90;;;;;;4943445;29;20063;-90
2021/01/07 05:48:02;;;;;;;20.80;7.80;;;-3.40;99.90;;;;;;4942149;29;20032;-91
2021/01/07 05:50:34;;;;;;;21.23;7.00;;;-3.30;99.90;;;;;;4926082;29;20504;-91
2021/01/07 05:53:01;;;;;;;17.90;6.30;;;-3.40;99.90;;;;;;4923792;29;20032;-89
2021/01/07 05:55:28;;;;;;;21.25;6.50;;;-3.40;99.90;;;;;;4922475;29;20031;-91
2021/01/07 05:57:59;;;;;;;19.35;7.30;;;-3.50;99.90;;;;;;4921985;29;20036;-90
2021/01/07 06:00:27;;;;;;;21.75;8.32;;;-3.50;99.90;;;;;;4921026;29;20393;-91
2021/01/07 06:02:57;;;;;;;18.73;6.95;;;-3.50;99.90;;;;;;4921220;29;20036;-90
2021/01/07 06:05:23;;;;;;;20.30;6.90;;;-3.50;99.90;;;;;;4921294;29;20028;-90
2021/01/07 06:07:52;;;;;;;15.63;6.90;;;-3.50;99.90;;;;;;4921068;29;20036;-91
2021/01/07 06:10:17;;;;;;;17.67;6.80;;;-3.50;99.90;;;;;;4920814;29;20083;-91
2021/01/07 06:12:43;;;;;;;18.48;7.25;;;-3.50;99.90;;;;;;4920684;29;20382;-91
2021/01/07 06:15:10;;;;;;;19.98;7.18;;;-3.50;99.90;;;;;;4921240;29;20038;-91
2021/01/07 06:17:37;;;;;;;14.07;6.00;;;-3.50;99.90;;;;;;4921023;29;20040;-91
2021/01/07 06:20:11;;;;;;;23.08;7.57;;;-3.50;99.90;;;;;;4920661;29;20063;-91
2021/01/07 06:22:39;;;;;;;15.38;6.10;;;-3.40;99.90;;;;;;4922435;29;20028;-91
2021/01/07 06:25:11;;;;;;;17.83;7.18;;;-3.40;99.90;;;;;;4925308;29;20044;-91
2021/01/07 06:27:40;;;;;;;14.73;6.07;;;-3.30;99.90;;;;;;4941447;29;20032;-91
2021/01/07 06:30:05;;;;;;;17.67;6.55;;;-3.30;99.90;;;;;;4943528;29;20036;-91
2021/01/07 06:32:31;;;;;;;14.93;6.53;;;-3.20;99.90;;;;;;4929284;29;20469;-90
2021/01/07 06:34:58;;;;;;;21.50;8.65;;;-3.10;99.90;;;;;;4932875;29;20008;-91
2021/01/07 06:37:43;;;;;;;18.40;6.30;;;-3.00;99.90;;;;;;4962366;28;20068;-91
2021/01/07 06:40:14;;;;;;;12.18;5.88;;;-3.00;99.90;;;;;;4946711;29;20016;-91
2021/01/07 06:42:41;;;;;;;;;;;-3.00;99.90;;;;;;4936629;29;20059;-90
2021/01/07 06:45:10;;;;;;;15.38;5.40;;;-3.00;99.90;;;;;;4924369;29;19911;-90
2021/01/07 06:47:37;;;;;;;14.25;6.10;;;-3.10;99.90;;;;;;4925002;29;20031;-90
2021/01/07 06:50:04;;;;;;;20.33;7.10;;;-3.00;99.90;;;;;;4924140;29;20110;-90
2021/01/07 06:52:41;;;;;;;18.85;6.22;;;-2.90;99.90;;;;;;4939945;29;20074;-89
2021/01/07 06:55:16;;;;;;;17.50;6.97;;;-2.90;99.90;;;;;;4923749;29;20055;-90
2021/01/07 06:57:45;;;;;;;15.52;5.78;;;-2.90;99.90;;;;;;4923391;29;20122;-90
2021/01/07 07:00:14;;;;;;;14.85;6.60;;;-2.90;99.90;;;;;;4923779;29;20075;-90
2021/01/07 07:02:55;;;;;;;17.27;6.93;;;-2.90;99.90;;;;;;4923791;29;20119;-90
2021/01/07 07:05:25;;;;;;;15.52;6.22;;;-2.90;99.90;;;;;;4922812;29;20043;-89
2021/01/07 07:08:06;;;;;;;14.95;7.30;;;-3.00;99.90;;;;;;4908815;29;20051;-89
2021/01/07 07:10:35;;;;;;;21.15;7.13;;;-3.00;99.90;;;;;;4922874;29;20090;-90
2021/01/07 07:13:31;;;;;;;19.75;7.38;;;-3.10;99.90;;;;;;4926100;29;20020;-90
2021/01/07 07:16:03;;;;;;;13.35;5.72;;;-3.10;99.90;;;;;;4926130;29;20552;-90
2021/01/07 07:18:34;;;;;;;18.13;6.03;;;-3.20;99.90;;;;;;4923285;29;20035;-89
2021/01/07 07:21:35;;;;;;;14.80;5.93;;;-3.20;99.90;;;;;;4929665;29;20028;-90
2021/01/07 07:24:45;;;;;;;17.63;6.43;;;-3.20;99.90;;;;;;4943741;29;20031;-89
2021/01/07 07:27:12;;;;;;;13.85;5.35;;;-3.20;99.90;;;;;;4950023;29;20040;-90
2021/01/07 07:29:49;;;;;;;13.73;6.13;;;-3.20;99.90;;;;;;4923120;29;20036;-89
2021/01/07 07:32:25;;;;;;;13.38;6.22;;;-3.20;99.90;;;;;;4923405;29;20079;-90
2021/01/07 07:34:52;;;;;;;20.17;6.47;;;-3.20;99.90;;;;;;4922957;29;20057;-90
2021/01/07 07:37:23;;;;;;;18.65;7.65;;;-3.20;99.90;;;;;;4923127;29;20059;-89
2021/01/07 07:39:50;;;;;;;18.70;6.95;;;-3.30;99.90;;;;;;4923550;29;20024;-89
2021/01/07 07:42:17;;;;;;;18.88;7.70;;;-3.30;99.90;;;;;;4926202;29;20059;-90
2021/01/07 07:44:43;;;;;;;14.57;6.03;;;-3.30;99.90;;;;;;4924354;29;20028;-89
2021/01/07 07:47:15;;;;;;;17.60;6.95;;;-3.30;99.90;;;;;;4922890;29;20028;-89
2021/01/07 07:49:42;;;;;;;13.80;6.65;;;-3.40;99.90;;;;;;4923522;29;20035;-88
2021/01/07 07:52:08;;;;;;;17.33;6.53;;;-3.40;99.90;;;;;;4925527;29;20034;-89
2021/01/07 07:54:34;;;;;;;16.80;7.07;;;-3.30;99.90;;;;;;4920670;29;20408;-89
2021/01/07 07:57:01;;;;;;;19.27;7.38;;;-3.10;99.90;;;;;;4922321;29;20047;-91
2021/01/07 07:59:27;;;;;;;18.65;7.47;;;-3.00;99.90;;;;;;4922179;29;20039;-88
2021/01/07 08:01:54;;;;;;;21.52;9.30;;;-2.90;99.90;;;;;;4922873;29;20034;-89
2021/01/07 08:04:26;;;;;;;22.02;8.40;;;-2.80;99.90;;;;;;4923248;29;20032;-88
2021/01/07 08:06:52;;;;;;;18.45;8.60;;;-2.80;99.90;;;;;;4922940;29;20031;-90
2021/01/07 08:09:20;;;;;;;20.63;8.63;;;-2.80;99.90;;;;;;4922233;29;20063;-90
2021/01/07 08:11:50;;;;;;;17.88;8.45;;;-2.70;99.90;;;;;;4945307;29;20039;-90
2021/01/07 08:14:21;;;;;;;25.27;9.77;;;-2.60;99.90;;;;;;4922984;29;20473;-88
2021/01/07 08:16:49;;;;;;;21.25;8.43;;;-2.60;99.90;;;;;;4922853;29;20031;-89
2021/01/07 08:19:22;;;;;;;24.08;8.50;;;-2.40;99.90;;;;;;4914590;29;20039;-89
2021/01/07 08:21:50;;;;;;;23.13;7.95;;;-2.40;99.90;;;;;;4920402;29;20044;-90
2021/01/07 08:24:18;;;;;;;21.15;8.20;;;-2.30;99.90;;;;;;4924128;29;20059;-91
2021/01/07 08:26:52;;;;;;;19.10;8.02;;;-2.30;99.90;;;;;;4923387;29;20024;-89
2021/01/07 08:29:19;;;;;;;20.45;9.02;;;-2.30;99.90;;;;;;4939559;29;20047;-91
2021/01/07 08:31:48;;;;;;;21.83;8.07;;;-2.30;99.90;;;;;;4923167;29;20027;-90
2021/01/07 08:34:18;;;;;;;16.13;7.30;;;-2.20;99.90;;;;;;4923120;29;20484;-92
2021/01/07 08:36:44;;;;;;;17.70;8.15;;;-2.10;99.90;;;;;;4922528;29;20114;-91
2021/01/07 08:39:16;;;;;;;20.33;7.03;;;-1.90;99.90;;;;;;4939688;29;20290;-91
2021/01/07 08:45:07;;;;;;;17.58;7.15;;;-1.70;99.90;;;;;;4939125;29;20087;-90
2021/01/07 08:47:36;;;;;;;15.88;7.38;;;-1.60;99.90;;;;;;4924470;29;20497;-90
2021/01/07 08:50:08;;;;;;;18.08;6.82;;;-1.50;99.90;;;;;;4940293;29;20036;-89
2021/01/07 08:52:53;;;;;;;12.63;5.70;;;-1.40;99.90;;;;;;4924866;29;20055;-90
2021/01/07 08:55:21;;;;;;;14.18;4.95;;;-1.40;99.90;;;;;;4922207;29;20028;-91
2021/01/07 08:57:46;;;;;;;15.02;5.78;;;-1.20;99.90;;;;;;4941611;29;20075;-90
2021/01/07 09:03:38;;;;;;;16.17;6.40;;;-1.10;99.90;;;;;;4938760;29;20034;-90
2021/01/07 09:06:07;;;;;;;26.38;9.77;;;-1.00;99.90;;;;;;4922691;29;20032;-89
2021/01/07 09:08:33;;;;;;;15.57;6.72;;;-1.00;99.90;;;;;;4921478;29;20028;-90
2021/01/07 09:11:06;;;;;;;15.63;6.88;;;-1.00;99.90;;;;;;4922157;29;20076;-91
2021/01/07 09:13:31;;;;;;;17.52;7.75;;;-0.90;99.90;;;;;;4924047;29;20118;-90
2021/01/07 09:16:16;;;;;;;15.00;6.85;;;-0.90;99.90;;;;;;4940086;29;20052;-90
2021/01/07 09:18:42;;;;;;;16.15;7.13;;;-0.80;99.90;;;;;;4925167;29;20039;-90
2021/01/07 09:21:15;;;;;;;15.45;6.95;;;-0.90;99.90;;;;;;4923769;29;20079;-92
2021/01/07 09:23:47;;;;;;;16.63;7.18;;;-1.00;99.90;;;;;;4922955;29;20036;-90
2021/01/07 09:26:29;;;;;;;22.83;8.05;;;-1.00;99.90;;;;;;4922190;29;20028;-90
2021/01/07 09:28:56;;;;;;;17.17;8.27;;;-1.00;99.90;;;;;;4921630;29;20023;-90
2021/01/07 09:31:21;;;;;;;19.80;8.57;;;-1.00;99.90;;;;;;4922170;29;20038;-92
2021/01/07 09:33:48;;;;;;;16.85;7.40;;;-1.00;99.90;;;;;;4937404;29;20027;-90
2021/01/07 09:36:13;;;;;;;18.13;7.45;;;-0.90;99.90;;;;;;4924057;29;20024;-91
2021/01/07 09:38:39;;;;;;;20.85;7.78;;;-0.80;99.90;;;;;;4922405;29;20127;-91
2021/01/07 09:41:05;;;;;;;17.17;7.53;;;-0.70;99.90;;;;;;4921825;29;20024;-91
2021/01/07 09:43:34;;;;;;;15.77;7.47;;;-0.60;99.90;;;;;;4923358;29;20043;-91
2021/01/07 09:46:00;;;;;;;18.52;8.43;;;-0.50;99.90;;;;;;4922073;29;20055;-93
2021/01/07 09:48:26;;;;;;;17.23;7.68;;;-0.40;99.90;;;;;;4922222;29;20036;-91
2021/01/07 09:50:53;;;;;;;16.13;7.15;;;-0.30;99.90;;;;;;4921920;29;20063;-93
2021/01/07 09:53:39;;;;;;;19.02;8.27;;;-0.10;99.90;;;;;;4922358;29;20031;-93
2021/01/07 09:56:04;;;;;;;17.75;7.10;;;0.00;99.90;;;;;;4922335;29;20032;-92
2021/01/07 09:58:33;;;;;;;19.52;7.50;;;0.30;99.90;;;;;;4926126;29;20054;-92
2021/01/07 10:00:59;;;;;;;18.63;7.22;;;0.50;99.90;;;;;;4926234;29;20414;-93
2021/01/07 10:03:24;;;;;;;15.27;7.03;;;0.80;99.90;;;;;;4927586;29;20122;-92
2021/01/07 10:05:50;;;;;;;16.83;7.57;;;1.10;99.90;;;;;;4925618;29;20036;-92
2021/01/07 10:08:16;;;;;;;14.32;8.27;;;1.40;99.90;;;;;;4926292;29;20126;-94
2021/01/07 10:10:42;;;;;;;14.57;6.90;;;1.70;99.90;;;;;;4926093;29;20556;-94
2021/01/07 10:13:08;;;;;;;13.73;6.75;;;2.00;99.90;;;;;;4925901;29;20208;-94
2021/01/07 10:15:34;;;;;;;13.00;6.78;;;2.30;99.90;;;;;;4926248;29;20075;-94
2021/01/07 10:17:59;;;;;;;9.38;5.43;;;2.60;99.90;;;;;;4925995;29;20512;-94
2021/01/07 10:20:25;;;;;;;14.80;7.10;;;3.00;99.90;;;;;;4926703;29;20416;-93
2021/01/07 10:22:52;;;;;;;11.95;6.32;;;3.20;99.90;;;;;;4927170;29;20158;-96
2021/01/07 10:25:18;;;;;;;16.88;6.95;;;3.40;99.90;;;;;;4926314;29;20062;-95
2021/01/07 10:27:49;;;;;;;13.93;6.00;;;3.60;99.90;;;;;;4925668;29;20492;-94
2021/01/07 10:31:10;;;;;;;11.48;5.68;;;3.80;99.90;;;;;;4930053;29;20039;-96
2021/01/07 10:36:57;;;;;;;;;;;4.40;99.90;;;;;;4888938;29;20036;-94
2021/01/07 10:45:51;;;;;;;13.63;5.97;;;5.00;99.90;;;;;;4870747;29;20097;-94
2021/01/07 10:48:26;;;;;;;12.63;6.30;;;4.90;99.90;;;;;;4855318;29;20559;-95
2021/01/07 10:50:58;;;;;;;15.20;7.10;;;4.70;99.90;;;;;;4853939;29;20132;-95
2021/01/07 10:57:08;;;;;;;12.57;6.25;;;4.60;99.90;;;;;;4867802;29;20037;-95
2021/01/07 11:00:07;;;;;;;12.02;5.82;;;4.80;99.90;;;;;;4853679;29;20041;-95
2021/01/07 11:02:58;;;;;;;13.60;5.57;;;5.20;99.90;;;;;;4859957;29;20040;-96
2021/01/07 11:05:30;;;;;;;;;;;5.50;99.90;;;;;;4877460;29;20057;-96
2021/01/07 11:08:17;;;;;;;10.70;5.82;;;5.80;99.90;;;;;;4867529;29;19896;-94
2021/01/07 11:11:19;;;;;;;10.20;5.47;;;6.00;99.90;;;;;;4879856;29;20041;-96
2021/01/07 11:13:47;;;;;;;9.77;5.13;;;5.80;99.90;;;;;;4954553;28;20075;-94
2021/01/07 11:16:24;;;;;;;11.77;5.20;;;5.40;99.90;;;;;;4946606;28;20019;-93
2021/01/07 11:18:55;;;;;;;11.32;5.93;;;5.00;99.90;;;;;;4947059;28;20024;-93
2021/01/07 11:21:29;;;;;;;17.17;5.95;;;4.80;99.90;;;;;;4947150;28;20108;-93
2021/01/07 11:23:56;;;;;;;11.15;6.03;;;4.80;99.90;;;;;;4946887;29;20016;-93
2021/01/07 11:26:22;;;;;;;12.07;5.55;;;4.90;99.90;;;;;;4946826;28;20023;-93
2021/01/07 11:28:51;;;;;;;10.98;5.50;;;4.90;99.90;;;;;;4946525;29;20046;-94
2021/01/07 11:31:18;;;;;;;12.02;6.93;;;5.00;99.90;;;;;;4945976;28;20043;-94
2021/01/07 11:33:45;;;;;;;13.60;7.07;;;4.90;99.90;;;;;;4946112;28;20047;-93
2021/01/07 11:36:18;;;;;;;12.32;6.57;;;4.80;99.90;;;;;;4961464;29;20039;-92
2021/01/07 11:39:04;;;;;;;14.20;6.93;;;4.80;99.90;;;;;;4943725;29;20027;-95
2021/01/07 11:42:06;;;;;;;17.95;7.50;;;4.80;99.90;;;;;;4941363;29;20063;-96
2021/01/07 11:44:59;;;;;;;24.00;10.50;;;4.60;99.90;;;;;;4956819;29;20028;-96
2021/01/07 11:47:30;;;;;;;14.88;7.75;;;4.60;99.90;;;;;;4934613;29;20039;-94
2021/01/07 11:49:59;;;;;;;16.27;7.88;;;4.70;99.90;;;;;;4939768;29;20032;-94
2021/01/07 11:52:26;;;;;;;16.83;7.70;;;5.00;99.90;;;;;;4942956;28;20023;-95
2021/01/07 11:54:53;;;;;;;15.75;7.18;;;5.60;99.90;;;;;;4941135;29;20035;-95
2021/01/07 11:57:20;;;;;;;12.73;7.10;;;6.20;99.90;;;;;;4935738;29;20023;-95
2021/01/07 11:59:46;;;;;;;13.75;7.05;;;6.80;99.90;;;;;;4936060;29;20024;-95
2021/01/07 12:02:12;;;;;;;19.35;9.07;;;7.20;99.90;;;;;;4937251;29;20091;-96
2021/01/07 12:04:41;;;;;;;18.90;8.63;;;7.60;99.90;;;;;;4937927;29;20023;-94
2021/01/07 12:07:54;;;;;;;18.75;10.65;;;8.00;99.90;;;;;;4936343;29;20028;-95
2021/01/07 12:10:24;;;;;;;21.15;9.68;;;8.40;99.40;;;;;;4919866;29;20139;-94
2021/01/07 12:13:06;;;;;;;24.90;12.80;;;8.70;98.30;;;;;;4928253;29;20058;-95
2021/01/07 12:15:34;;;;;;;23.85;12.45;;;8.80;97.00;;;;;;4934498;29;20036;-95
2021/01/07 12:18:02;;;;;;;25.52;13.18;;;8.80;96.60;;;;;;4932114;29;20048;-96
2021/01/07 12:20:34;;;;;;;33.78;14.77;;;8.80;96.00;;;;;;4929195;29;20032;-95
2021/01/07 12:23:00;;;;;;;34.05;16.52;;;8.90;95.30;;;;;;4925490;29;20024;-96
2021/01/07 12:25:27;;;;;;;35.92;18.30;;;8.80;93.60;;;;;;4930012;29;20122;-96
2021/01/07 12:27:52;;;;;;;36.75;18.23;;;8.60;94.00;;;;;;4926683;29;20023;-94
2021/01/07 12:30:20;;;;;;;26.60;16.65;;;8.50;94.10;;;;;;4927377;29;20036;-96
2021/01/07 12:33:21;;;;;;;32.78;16.40;;;8.60;94.20;;;;;;4928823;29;20039;-95
2021/01/07 12:36:02;;;;;;;26.25;12.43;;;9.10;94.30;;;;;;4903647;29;20489;-96
2021/01/07 12:38:40;;;;;;;22.25;12.38;;;9.70;93.40;;;;;;4926528;29;20036;-96
2021/01/07 12:41:13;;;;;;;23.17;11.52;;;10.30;91.50;;;;;;4941579;29;20051;-95
2021/01/07 12:43:43;;;;;;;21.25;11.50;;;10.60;90.10;;;;;;4924569;29;20024;-95
2021/01/07 12:46:14;;;;;;;19.92;10.05;;;10.90;89.10;;;;;;4923970;29;20031;-94
2021/01/07 12:48:43;;;;;;;20.48;9.82;;;11.00;87.20;;;;;;4927296;29;20133;-96
2021/01/07 12:51:10;;;;;;;18.27;9.25;;;10.90;86.80;;;;;;4927872;29;20043;-94
2021/01/07 12:53:38;;;;;;;15.27;8.65;;;10.40;86.40;;;;;;4928489;29;20031;-96
2021/01/07 12:59:31;;;;;;;15.40;7.90;;;9.80;87.70;;;;;;4960505;29;20047;-94
2021/01/07 13:02:30;;;;;;;11.45;7.13;;;9.70;88.50;;;;;;4943521;29;20026;-93
2021/01/07 13:05:23;;;;;;;18.45;8.60;;;9.70;87.50;;;;;;4926131;29;20038;-96
2021/01/07 13:07:53;;;;;;;20.55;8.52;;;9.40;87.90;;;;;;4926563;29;20039;-95
2021/01/07 13:10:20;;;;;;;21.10;8.73;;;8.90;88.10;;;;;;4924878;29;20115;-93
2021/01/07 13:12:46;;;;;;;16.77;7.70;;;8.30;88.90;;;;;;4924188;29;20540;-93
2021/01/07 13:15:13;;;;;;;17.67;8.93;;;7.70;90.40;;;;;;4925028;29;20027;-96
2021/01/07 13:17:42;;;;;;;14.75;6.95;;;7.20;91.20;;;;;;4924003;29;20035;-93
2021/01/07 13:20:08;;;;;;;18.48;7.75;;;6.70;92.00;;;;;;4924089;29;20101;-94
2021/01/07 13:22:36;;;;;;;23.63;9.02;;;6.20;92.80;;;;;;4923850;29;20062;-94
2021/01/07 13:25:02;;;;;;;22.60;8.95;;;5.80;93.60;;;;;;4924211;29;20086;-95
2021/01/07 13:27:28;;;;;;;22.30;9.18;;;5.40;94.50;;;;;;4925018;29;20110;-95
2021/01/07 13:29:55;;;;;;;21.67;10.07;;;5.20;95.30;;;;;;4925195;29;20481;-96
2021/01/07 13:32:24;;;;;;;20.02;9.52;;;5.00;95.90;;;;;;4923083;29;20040;-95
2021/01/07 13:34:52;;;;;;;20.75;9.57;;;4.70;96.60;;;;;;4923745;29;20040;-95
2021/01/07 13:37:19;;;;;;;19.30;9.70;;;4.50;97.20;;;;;;4922800;29;20098;-94
2021/01/07 13:39:46;;;;;;;19.20;9.95;;;4.30;97.70;;;;;;4923186;29;20036;-95
2021/01/07 13:42:14;;;;;;;19.45;9.85;;;4.20;98.40;;;;;;4925357;29;20059;-95
2021/01/07 13:44:44;;;;;;;19.75;9.45;;;4.10;98.80;;;;;;4923360;29;20031;-94
2021/01/07 13:47:11;;;;;;;21.30;9.50;;;4.10;99.30;;;;;;4923315;29;20047;-93
2021/01/07 13:49:38;;;;;;;22.48;9.27;;;4.00;99.70;;;;;;4924582;29;20118;-96
2021/01/07 13:52:05;;;;;;;17.92;9.00;;;3.90;99.90;;;;;;4926202;29;20028;-96
2021/01/07 13:54:36;;;;;;;13.38;7.50;;;3.90;99.90;;;;;;4930239;29;20067;-96
2021/01/07 13:57:05;;;;;;;18.98;9.05;;;3.80;99.90;;;;;;4928135;29;20047;-96
2021/01/07 13:59:33;;;;;;;16.75;8.65;;;3.70;99.90;;;;;;4930528;29;20031;-95
2021/01/07 14:02:04;;;;;;;15.48;8.40;;;3.60;99.90;;;;;;4932345;29;20074;-94
2021/01/07 14:04:40;;;;;;;15.15;8.65;;;3.60;99.90;;;;;;4931252;29;20032;-95
2021/01/07 14:07:15;;;;;;;16.63;8.63;;;3.50;99.90;;;;;;4934696;29;20023;-94
2021/01/07 14:09:44;;;;;;;15.77;9.00;;;3.50;99.90;;;;;;4956654;29;20023;-95
2021/01/07 14:12:14;;;;;;;18.30;8.45;;;3.50;99.90;;;;;;4935833;29;20112;-96
2021/01/07 14:14:45;;;;;;;17.83;9.32;;;3.50;99.90;;;;;;4939475;29;20031;-95
2021/01/07 14:17:10;;;;;;;;;;;3.50;99.90;;;;;;4940464;29;20079;-93
2021/01/07 14:19:37;;;;;;;12.32;6.78;;;3.50;99.90;;;;;;4938286;29;19910;-94
2021/01/07 14:22:06;;;;;;;16.35;8.07;;;3.50;99.90;;;;;;4940633;29;20060;-95
2021/01/07 14:24:36;;;;;;;15.70;7.05;;;3.60;99.90;;;;;;4939683;29;20060;-95
2021/01/07 14:27:20;;;;;;;13.13;6.90;;;3.60;99.90;;;;;;4935652;29;20090;-95
2021/01/07 14:29:51;;;;;;;17.67;7.32;;;4.10;99.90;;;;;;4936884;29;20020;-96
2021/01/07 14:32:18;;;;;;;19.10;9.35;;;4.60;99.90;;;;;;4937584;29;20019;-96
2021/01/07 14:34:48;;;;;;;17.15;9.07;;;4.80;99.90;;;;;;4936458;29;20024;-95
2021/01/07 14:37:17;;;;;;;18.67;8.27;;;4.80;99.90;;;;;;4935473;29;20099;-94
2021/01/07 14:39:44;;;;;;;13.65;6.82;;;4.60;99.90;;;;;;4929887;29;20130;-95
2021/01/07 14:42:10;;;;;;;17.65;9.00;;;4.50;99.90;;;;;;4929068;29;20031;-95
2021/01/07 14:44:36;;;;;;;15.93;8.25;;;4.30;99.90;;;;;;4927280;29;20086;-95
2021/01/07 14:47:04;;;;;;;18.45;8.55;;;4.20;99.90;;;;;;4944624;29;20031;-95
2021/01/07 14:49:32;;;;;;;14.60;7.25;;;4.10;99.90;;;;;;4926664;29;20028;-92
2021/01/07 14:51:59;;;;;;;14.45;7.07;;;3.90;99.90;;;;;;4934250;29;20031;-96
2021/01/07 14:54:32;;;;;;;12.10;7.32;;;3.90;99.90;;;;;;4931019;29;20046;-95
2021/01/07 14:57:06;;;;;;;18.38;8.85;;;3.70;99.90;;;;;;4932357;29;20032;-95
2021/01/07 14:59:38;;;;;;;19.98;9.95;;;3.70;99.90;;;;;;4935802;29;20091;-95
2021/01/07 15:02:32;;;;;;;21.08;11.00;;;3.60;99.90;;;;;;4933053;29;20051;-95
2021/01/07 15:05:07;;;;;;;28.08;15.10;;;3.60;99.90;;;;;;4931423;29;20107;-96
2021/01/07 15:07:52;;;;;;;36.70;21.40;;;3.50;99.90;;;;;;4949834;29;20070;-96
2021/01/07 15:10:28;;;;;;;32.30;18.45;;;3.40;99.90;;;;;;4930617;29;20024;-95
2021/01/07 15:13:20;;;;;;;31.75;18.23;;;3.30;99.90;;;;;;4928114;29;20055;-95
2021/01/07 15:16:51;;;;;;;;;;;;;;;;;;;;;
2021/01/07 15:19:59;;;;;;;40.45;21.45;;;3.10;99.90;;;;;;4932905;29;20095;-95
2021/01/07 15:26:15;;;;;;;38.40;22.83;;;2.90;99.90;;;;;;4941324;29;20043;-96
2021/01/07 15:36:40;;;;;;;23.17;10.88;;;2.70;99.90;;;;;;4886181;29;20048;-95
2021/01/07 15:46:35;;;;;;;27.83;15.00;;;2.50;99.90;;;;;;4828837;29;20061;-96
2021/01/07 15:53:23;;;;;;;26.33;12.80;;;2.40;99.90;;;;;;4827549;29;20035;-95
2021/01/07 16:03:00;;;;;;;20.60;11.27;;;2.30;99.90;;;;;;4826264;29;20034;-91
2021/01/07 16:05:29;;;;;;;20.73;11.00;;;2.40;99.90;;;;;;4810414;29;20026;-92
2021/01/07 16:08:01;;;;;;;18.27;10.07;;;2.40;99.90;;;;;;4814482;29;20038;-91